Terminal Aerodrome Forecast
Issued by NWS Rapid City, SD

Home | Current Version | Previous Version | Graphics & Text | Print | Product List | Glossary On
Versions: 1 2 3 4 5 6 7 8 9 10 11 12 13 14
456
FTUS43 KUNR 211720
TAFRAP
TAF
KRAP 211720Z 2118/2218 16010KT P6SM SKC
     FM220800 20006KT P6SM SKC WS020/20035KT=

USA.gov is the U.S. government's official web portal to all federal, state and local government web resources and services.